createdAt,value
2018-11-07T00:01:16.088Z,30.17
2018-11-07T00:03:46.630Z,27.83
2018-11-07T00:06:17.241Z,29.00
2018-11-07T00:08:47.743Z,25.30
2018-11-07T00:11:17.987Z,27.30
2018-11-07T00:13:48.434Z,27.37
2018-11-07T00:16:18.745Z,28.40
2018-11-07T00:18:49.040Z,28.47
2018-11-07T00:21:19.434Z,27.03
2018-11-07T00:23:49.737Z,25.53
2018-11-07T00:26:20.048Z,29.27
2018-11-07T00:28:50.484Z,31.57
2018-11-07T00:31:20.764Z,29.73
2018-11-07T00:33:51.134Z,33.40
2018-11-07T00:36:21.352Z,26.63
2018-11-07T00:38:51.617Z,30.13
2018-11-07T00:41:21.935Z,31.77
2018-11-07T00:43:52.296Z,33.77
2018-11-07T00:46:22.694Z,32.00
2018-11-07T00:48:52.903Z,28.80
2018-11-07T00:51:23.170Z,24.47
2018-11-07T00:53:53.587Z,27.77
2018-11-07T00:56:24.238Z,23.43
2018-11-07T00:58:54.839Z,25.60
2018-11-07T01:01:25.297Z,25.60
2018-11-07T01:03:55.635Z,26.43
2018-11-07T01:06:26.008Z,27.23
2018-11-07T01:08:56.362Z,27.33
2018-11-07T01:11:27.247Z,26.63
2018-11-07T01:13:57.596Z,29.00
2018-11-07T01:16:27.880Z,24.30
2018-11-07T01:18:58.184Z,27.93
2018-11-07T01:21:28.496Z,27.00
2018-11-07T01:23:58.856Z,27.10
2018-11-07T01:26:29.059Z,25.77
2018-11-07T01:28:59.405Z,25.27
2018-11-07T01:31:29.908Z,31.70
2018-11-07T01:34:00.142Z,27.70
2018-11-07T01:36:30.659Z,23.73
2018-11-07T01:39:01.183Z,31.07
2018-11-07T01:41:31.601Z,27.43
2018-11-07T01:44:02.073Z,32.53
2018-11-07T01:46:32.506Z,31.97
2018-11-07T01:49:02.844Z,31.95
2018-11-07T01:51:33.487Z,28.63
2018-11-07T01:54:03.716Z,24.03
2018-11-07T01:56:34.084Z,27.73
2018-11-07T01:59:04.427Z,25.67
2018-11-07T02:01:34.952Z,33.53
2018-11-07T02:04:05.633Z,25.13
2018-11-07T02:06:35.954Z,25.97
2018-11-07T02:09:09.152Z,25.80
2018-11-07T02:11:39.726Z,25.40
2018-11-07T02:14:10.139Z,22.87
2018-11-07T02:16:40.449Z,25.90
2018-11-07T02:19:10.734Z,26.90
2018-11-07T02:21:41.310Z,42.70
2018-11-07T02:24:12.073Z,53.17
2018-11-07T02:26:42.579Z,74.33
2018-11-07T02:29:14.343Z,110.07
2018-11-07T02:31:46.451Z,85.17
2018-11-07T02:34:17.108Z,88.33
2018-11-07T02:36:47.610Z,51.63
2018-11-07T02:39:17.780Z,38.83
2018-11-07T02:41:48.151Z,40.23
2018-11-07T02:44:18.608Z,37.37
2018-11-07T02:46:49.017Z,37.03
2018-11-07T02:49:19.478Z,40.43
2018-11-07T02:51:50.062Z,39.17
2018-11-07T02:54:20.336Z,36.77
2018-11-07T02:56:50.822Z,35.73
2018-11-07T02:59:21.198Z,38.90
2018-11-07T03:01:51.568Z,36.80
2018-11-07T03:04:22.238Z,36.27
2018-11-07T03:06:52.905Z,33.50
2018-11-07T03:09:23.586Z,31.33
2018-11-07T03:11:53.932Z,41.60
2018-11-07T03:14:24.381Z,32.93
2018-11-07T03:16:54.646Z,33.10
2018-11-07T03:19:24.907Z,35.57
2018-11-07T03:21:55.133Z,38.63
2018-11-07T03:24:25.410Z,33.13
2018-11-07T03:26:55.589Z,43.73
2018-11-07T03:29:25.922Z,69.93
2018-11-07T03:31:56.184Z,108.30
2018-11-07T03:34:26.510Z,108.17
2018-11-07T03:36:56.866Z,89.23
2018-11-07T03:39:27.136Z,80.07
2018-11-07T03:41:57.487Z,74.00
2018-11-07T03:44:27.838Z,82.70
2018-11-07T03:46:58.333Z,78.97
2018-11-07T03:49:28.651Z,88.03
2018-11-07T03:51:59.064Z,147.93
2018-11-07T03:54:29.781Z,151.60
2018-11-07T03:57:00.351Z,180.90
2018-11-07T03:59:30.998Z,146.70
2018-11-07T04:02:01.385Z,164.97
2018-11-07T04:04:31.801Z,135.50
2018-11-07T04:07:02.163Z,164.37
2018-11-07T04:09:32.518Z,152.30
2018-11-07T04:12:02.940Z,125.77
2018-11-07T04:14:33.487Z,111.43
2018-11-07T04:17:04.009Z,113.90
2018-11-07T04:19:34.480Z,115.82
2018-11-07T04:22:05.017Z,116.63
2018-11-07T04:24:35.298Z,81.10
2018-11-07T04:27:05.961Z,48.47
2018-11-07T04:29:36.399Z,44.00
2018-11-07T04:32:06.873Z,38.63
2018-11-07T04:34:37.220Z,37.37
2018-11-07T04:37:07.470Z,36.97
2018-11-07T04:39:37.947Z,38.80
2018-11-07T04:42:08.224Z,40.70
2018-11-07T04:44:38.616Z,39.20
2018-11-07T04:47:09.182Z,40.77
2018-11-07T04:49:39.678Z,39.27
2018-11-07T04:52:12.900Z,42.10
2018-11-07T04:54:43.104Z,43.43
2018-11-07T04:57:13.522Z,43.30
2018-11-07T04:59:44.189Z,43.27
2018-11-07T05:02:14.498Z,43.53
2018-11-07T05:04:45.154Z,40.67
2018-11-07T05:07:15.655Z,43.07
2018-11-07T05:09:45.908Z,45.17
2018-11-07T05:12:16.304Z,42.13
2018-11-07T05:14:46.706Z,52.70
2018-11-07T05:17:17.339Z,45.93
2018-11-07T05:19:47.713Z,45.30
2018-11-07T05:22:18.052Z,58.07
2018-11-07T05:24:48.344Z,47.20
2018-11-07T05:27:18.669Z,78.93
2018-11-07T05:29:49.057Z,47.47
2018-11-07T05:32:19.328Z,52.50
2018-11-07T05:34:49.609Z,52.97
2018-11-07T05:37:20.203Z,44.63
2018-11-07T05:39:50.846Z,60.93
2018-11-07T05:42:21.178Z,51.03
2018-11-07T05:44:51.364Z,44.93
2018-11-07T05:47:21.675Z,46.63
2018-11-07T05:49:51.937Z,46.37
2018-11-07T05:52:22.268Z,53.40
2018-11-07T05:54:52.803Z,56.37
2018-11-07T05:57:23.129Z,59.37
2018-11-07T05:59:53.593Z,44.07
2018-11-07T06:02:23.905Z,56.17
2018-11-07T06:04:54.143Z,53.67
2018-11-07T06:07:24.610Z,108.90
2018-11-07T06:09:54.999Z,74.13
2018-11-07T06:12:25.295Z,54.83
2018-11-07T06:14:55.552Z,49.33
2018-11-07T06:17:25.862Z,61.63
2018-11-07T06:19:56.104Z,77.40
2018-11-07T06:22:26.779Z,103.83
2018-11-07T06:24:57.381Z,76.73
2018-11-07T06:27:28.797Z,74.70
2018-11-07T06:29:59.229Z,83.77
2018-11-07T06:32:29.503Z,87.53
2018-11-07T06:34:59.943Z,70.97
2018-11-07T06:37:30.754Z,96.57
2018-11-07T06:40:01.916Z,96.77
2018-11-07T06:42:32.258Z,86.53
2018-11-07T06:45:03.338Z,40.30
2018-11-07T06:47:34.082Z,62.60
2018-11-07T06:50:04.702Z,65.87
2018-11-07T06:52:34.963Z,80.23
2018-11-07T06:55:05.694Z,61.77
2018-11-07T06:57:36.249Z,58.77
2018-11-07T07:00:10.760Z,32.10
2018-11-07T07:02:41.169Z,40.80
2018-11-07T07:05:11.722Z,49.83
2018-11-07T07:07:42.120Z,53.27
2018-11-07T07:10:14.764Z,45.57
2018-11-07T07:12:45.211Z,46.97
2018-11-07T07:15:16.960Z,39.57
2018-11-07T07:17:47.637Z,69.80
2018-11-07T07:20:19.474Z,54.40
2018-11-07T07:22:50.447Z,90.83
2018-11-07T07:25:21.019Z,66.77
2018-11-07T07:27:51.493Z,42.37
2018-11-07T07:30:22.683Z,46.27
2018-11-07T07:32:52.970Z,44.03
2018-11-07T07:35:23.538Z,51.13
2018-11-07T07:37:54.172Z,36.13
2018-11-07T07:40:25.091Z,45.77
2018-11-07T07:42:55.465Z,40.77
2018-11-07T07:45:25.946Z,74.83
2018-11-07T07:47:56.550Z,55.50
2018-11-07T07:50:27.179Z,82.70
2018-11-07T07:52:57.881Z,75.43
2018-11-07T07:55:28.394Z,52.80
2018-11-07T07:57:58.660Z,58.10
2018-11-07T08:00:29.014Z,34.57
2018-11-07T08:02:59.625Z,49.27
2018-11-07T08:05:30.071Z,81.07
2018-11-07T08:08:00.814Z,62.87
2018-11-07T08:10:31.215Z,77.67
2018-11-07T08:13:01.734Z,67.87
2018-11-07T08:15:32.011Z,31.40
2018-11-07T08:18:02.359Z,30.87
2018-11-07T08:20:32.768Z,30.57
2018-11-07T08:23:03.349Z,26.20
2018-11-07T08:25:33.700Z,32.10
2018-11-07T08:28:04.105Z,40.27
2018-11-07T08:30:34.473Z,34.23
2018-11-07T08:33:04.823Z,34.63
2018-11-07T08:35:35.404Z,55.70
2018-11-07T08:38:05.923Z,53.00
2018-11-07T08:40:36.981Z,42.77
2018-11-07T08:43:07.391Z,34.90
2018-11-07T08:45:38.104Z,28.50
2018-11-07T08:48:08.581Z,71.83
2018-11-07T08:50:38.948Z,82.07
2018-11-07T08:53:09.392Z,49.73
2018-11-07T08:55:40.531Z,64.43
2018-11-07T08:58:15.432Z,87.67
2018-11-07T09:00:45.610Z,40.83
2018-11-07T09:03:16.386Z,69.03
2018-11-07T09:05:46.832Z,50.13
2018-11-07T09:08:17.094Z,90.33
2018-11-07T09:10:47.665Z,38.60
2018-11-07T09:13:18.327Z,49.77
2018-11-07T09:15:48.750Z,53.97
2018-11-07T09:18:19.192Z,42.20
2018-11-07T09:20:49.807Z,45.03
2018-11-07T09:23:19.978Z,78.00
2018-11-07T09:25:50.226Z,38.87
2018-11-07T09:28:20.748Z,55.90
2018-11-07T09:30:51.158Z,49.37
2018-11-07T09:33:21.844Z,39.13
2018-11-07T09:35:53.317Z,30.67
2018-11-07T09:38:24.344Z,37.83
2018-11-07T09:40:54.843Z,40.10
2018-11-07T09:43:25.461Z,40.83
2018-11-07T09:45:56.084Z,38.97
2018-11-07T09:48:26.426Z,36.07
2018-11-07T09:50:56.861Z,46.30
2018-11-07T09:53:27.662Z,33.57
2018-11-07T09:55:58.288Z,46.17
2018-11-07T09:58:28.857Z,34.07
2018-11-07T10:00:59.366Z,45.33
2018-11-07T10:03:30.001Z,35.63
2018-11-07T10:06:00.734Z,30.73
2018-11-07T10:08:31.413Z,34.90
2018-11-07T10:11:02.082Z,35.73
2018-11-07T10:13:32.572Z,39.23
2018-11-07T10:16:03.048Z,45.20
2018-11-07T10:18:33.445Z,61.83
2018-11-07T10:21:03.974Z,46.80
2018-11-07T10:23:34.839Z,62.53
2018-11-07T10:26:05.562Z,37.70
2018-11-07T10:28:36.424Z,40.40
2018-11-07T10:31:06.913Z,38.63
2018-11-07T10:33:37.468Z,55.13
2018-11-07T10:36:08.122Z,50.10
2018-11-07T10:38:38.806Z,40.80
2018-11-07T10:41:09.433Z,42.53
2018-11-07T10:43:39.901Z,38.63
2018-11-07T10:46:10.708Z,39.27
2018-11-07T10:48:41.778Z,47.10
2018-11-07T10:51:12.389Z,38.60
2018-11-07T10:53:42.982Z,43.60
2018-11-07T10:56:13.384Z,38.42
2018-11-07T10:58:43.789Z,33.17
2018-11-07T11:01:19.624Z,37.20
2018-11-07T11:03:50.109Z,42.00
2018-11-07T11:06:20.915Z,42.57
2018-11-07T11:08:51.332Z,38.37
2018-11-07T11:11:22.121Z,51.30
2018-11-07T11:13:52.814Z,37.60
2018-11-07T11:16:23.311Z,37.93
2018-11-07T11:18:53.663Z,34.37
2018-11-07T11:21:24.323Z,42.73
2018-11-07T11:23:54.763Z,43.27
2018-11-07T11:26:25.401Z,38.57
2018-11-07T11:28:56.144Z,29.50
2018-11-07T11:31:28.496Z,30.47
2018-11-07T11:33:59.439Z,37.37
2018-11-07T11:36:30.107Z,35.47
2018-11-07T11:39:00.658Z,32.23
2018-11-07T11:41:31.149Z,36.20
2018-11-07T11:44:01.500Z,30.77
2018-11-07T11:46:32.336Z,28.73
2018-11-07T11:49:03.182Z,31.43
2018-11-07T11:51:34.652Z,30.40
2018-11-07T11:54:05.167Z,33.50
2018-11-07T11:56:35.631Z,36.30
2018-11-07T11:59:06.463Z,31.63
2018-11-07T12:01:37.102Z,34.53
2018-11-07T12:04:07.699Z,32.00
2018-11-07T12:06:38.321Z,31.80
2018-11-07T12:09:10.131Z,27.50
2018-11-07T12:11:40.610Z,29.33
2018-11-07T12:14:11.394Z,26.97
2018-11-07T12:16:41.812Z,29.53
2018-11-07T12:19:12.792Z,33.67
2018-11-07T12:21:43.085Z,29.37
2018-11-07T12:24:13.539Z,25.30
2018-11-07T12:26:44.089Z,30.43
2018-11-07T12:29:14.663Z,26.63
2018-11-07T12:31:46.122Z,26.63
2018-11-07T12:34:16.739Z,34.37
2018-11-07T12:36:47.300Z,29.43
2018-11-07T12:39:17.728Z,35.83
2018-11-07T12:41:48.503Z,30.97
2018-11-07T12:44:19.043Z,28.40
2018-11-07T12:46:49.746Z,29.70
2018-11-07T12:49:20.176Z,33.77
2018-11-07T12:51:50.853Z,28.23
2018-11-07T12:54:21.377Z,34.27
2018-11-07T12:56:52.005Z,32.33
2018-11-07T12:59:22.353Z,30.57
2018-11-07T13:01:53.134Z,32.53
2018-11-07T13:04:24.010Z,41.17
2018-11-07T13:06:54.799Z,32.07
2018-11-07T13:09:25.365Z,31.67
2018-11-07T13:11:55.987Z,39.03
2018-11-07T13:14:26.764Z,33.47
2018-11-07T13:16:57.147Z,37.37
2018-11-07T13:19:27.698Z,56.67
2018-11-07T13:21:58.402Z,41.13
2018-11-07T13:24:28.918Z,32.73
2018-11-07T13:26:59.300Z,39.60
2018-11-07T13:29:29.696Z,33.67
2018-11-07T13:32:00.264Z,34.67
2018-11-07T13:34:30.777Z,41.47
2018-11-07T13:37:01.684Z,36.80
2018-11-07T13:39:31.968Z,39.73
2018-11-07T13:42:02.519Z,33.80
2018-11-07T13:44:33.057Z,38.50
2018-11-07T13:47:03.385Z,36.97
2018-11-07T13:49:34.213Z,37.03
2018-11-07T13:52:04.697Z,29.67
2018-11-07T13:54:35.139Z,26.73
2018-11-07T13:57:06.175Z,37.30
2018-11-07T13:59:36.479Z,25.83
2018-11-07T14:02:07.282Z,40.00
2018-11-07T14:04:37.906Z,38.07
2018-11-07T14:07:08.203Z,32.33
2018-11-07T14:09:39.057Z,29.93
2018-11-07T14:12:09.433Z,39.10
2018-11-07T14:14:39.884Z,43.43
2018-11-07T14:17:10.337Z,42.67
2018-11-07T14:19:40.736Z,53.40
2018-11-07T14:22:11.448Z,51.33
2018-11-07T14:24:41.925Z,69.87
2018-11-07T14:27:12.524Z,56.70
2018-11-07T14:29:43.083Z,57.37
2018-11-07T14:32:13.853Z,64.93
2018-11-07T14:34:44.540Z,63.83
2018-11-07T14:37:15.048Z,72.50
2018-11-07T14:39:45.689Z,72.90
2018-11-07T14:42:16.533Z,83.83
2018-11-07T14:44:47.272Z,82.57
2018-11-07T14:47:18.019Z,79.43
2018-11-07T14:49:48.411Z,89.10
2018-11-07T14:52:19.066Z,86.13
2018-11-07T14:54:49.657Z,79.90
2018-11-07T14:57:19.983Z,95.63
2018-11-07T14:59:50.356Z,115.47
2018-11-07T15:02:20.905Z,112.30
2018-11-07T15:04:51.678Z,118.53
2018-11-07T15:07:22.246Z,104.27
2018-11-07T15:09:53.453Z,122.47
2018-11-07T15:12:24.443Z,130.63
2018-11-07T15:14:55.255Z,82.77
2018-11-07T15:17:25.887Z,72.73
2018-11-07T15:20:00.434Z,78.37
2018-11-07T15:22:32.670Z,77.63
2018-11-07T15:25:03.025Z,62.23
2018-11-07T15:27:33.459Z,54.90
2018-11-07T15:30:04.201Z,60.80
2018-11-07T15:32:34.619Z,85.80
2018-11-07T15:35:05.443Z,102.70
2018-11-07T15:37:36.304Z,119.27
2018-11-07T15:40:09.721Z,224.70
2018-11-07T15:42:40.740Z,257.43
2018-11-07T15:45:13.391Z,253.53
2018-11-07T15:47:44.660Z,247.90
2018-11-07T15:50:21.994Z,203.13
2018-11-07T15:52:53.166Z,183.03
2018-11-07T15:55:27.559Z,225.27
2018-11-07T15:57:58.042Z,238.67
2018-11-07T16:00:28.610Z,223.07
2018-11-07T16:03:00.684Z,211.17
2018-11-07T16:05:32.094Z,203.63
2018-11-07T16:08:07.234Z,158.33
2018-11-07T16:10:37.718Z,174.17
2018-11-07T16:13:08.019Z,183.23
2018-11-07T16:15:38.689Z,178.37
2018-11-07T16:18:10.166Z,176.07
2018-11-07T16:20:41.971Z,180.63
2018-11-07T16:23:12.187Z,156.20
2018-11-07T16:25:42.918Z,161.67
2018-11-07T16:28:13.360Z,163.63
2018-11-07T16:30:43.792Z,191.00
2018-11-07T16:33:14.262Z,187.40
2018-11-07T16:35:44.400Z,180.87
2018-11-07T16:38:15.224Z,196.83
2018-11-07T16:40:45.859Z,177.03
2018-11-07T16:43:16.506Z,152.47
2018-11-07T16:45:46.691Z,127.13
2018-11-07T16:48:17.766Z,119.60
2018-11-07T16:50:48.217Z,115.90
2018-11-07T16:53:19.337Z,78.63
2018-11-07T16:55:51.310Z,82.90
2018-11-07T16:58:21.692Z,70.20
2018-11-07T17:00:52.554Z,64.40
2018-11-07T17:03:24.375Z,73.57
2018-11-07T17:05:56.267Z,85.77
2018-11-07T17:08:28.493Z,69.30
2018-11-07T17:11:00.273Z,84.83
2018-11-07T17:14:01.884Z,104.10
2018-11-07T17:16:34.857Z,102.87
2018-11-07T17:22:01.320Z,123.40
2018-11-07T17:24:34.619Z,151.43
2018-11-07T17:27:13.656Z,135.63
2018-11-07T17:29:49.151Z,138.73
2018-11-07T17:32:21.790Z,134.70
2018-11-07T17:34:54.590Z,130.27
2018-11-07T17:37:27.239Z,128.03
2018-11-07T17:40:00.384Z,145.40
2018-11-07T17:42:33.121Z,137.93
2018-11-07T17:45:05.911Z,129.13
2018-11-07T17:47:39.118Z,144.63
2018-11-07T17:50:13.804Z,139.43
2018-11-07T17:52:46.585Z,132.00
2018-11-07T17:55:23.093Z,141.67
2018-11-07T17:57:56.134Z,126.90
2018-11-07T18:00:35.651Z,141.93
2018-11-07T18:03:09.282Z,128.43
2018-11-07T18:05:43.219Z,129.43
2018-11-07T18:08:16.002Z,139.77
2018-11-07T18:10:50.210Z,139.63
2018-11-07T18:13:24.755Z,143.33
2018-11-07T18:15:58.193Z,132.93
2018-11-07T18:18:32.957Z,123.43
2018-11-07T18:21:05.912Z,122.00
2018-11-07T18:23:41.022Z,130.03
2018-11-07T18:26:14.645Z,134.43
2018-11-07T18:28:48.126Z,117.23
2018-11-07T18:31:22.333Z,125.23
2018-11-07T18:33:55.435Z,114.87
2018-11-07T18:36:30.710Z,158.93
2018-11-07T18:39:06.889Z,158.10
2018-11-07T18:41:40.110Z,153.83
2018-11-07T18:44:12.975Z,137.23
2018-11-07T18:46:45.915Z,153.80
2018-11-07T18:49:19.147Z,150.10
2018-11-07T18:51:51.866Z,146.30
2018-11-07T18:54:24.545Z,129.97
2018-11-07T18:56:57.878Z,134.27
2018-11-07T18:59:30.966Z,131.13
2018-11-07T19:02:03.671Z,147.90
2018-11-07T19:04:36.340Z,123.77
2018-11-07T19:07:09.462Z,133.67
2018-11-07T19:09:42.218Z,107.57
2018-11-07T19:12:14.631Z,107.30
2018-11-07T19:14:47.324Z,116.70
2018-11-07T19:17:20.530Z,92.97
2018-11-07T19:19:52.893Z,87.90
2018-11-07T19:22:25.628Z,86.40
2018-11-07T19:24:58.267Z,81.77
2018-11-07T19:27:31.317Z,99.93
2018-11-07T19:30:04.598Z,89.53
2018-11-07T19:32:37.487Z,99.87
2018-11-07T19:35:12.548Z,89.20
2018-11-07T19:37:46.010Z,90.03
2018-11-07T19:40:20.734Z,88.37
2018-11-07T19:42:53.703Z,65.17
2018-11-07T19:45:26.496Z,64.53
2018-11-07T19:47:59.835Z,63.93
2018-11-07T19:50:32.852Z,72.67
2018-11-07T19:53:06.040Z,73.63
2018-11-07T19:55:38.829Z,60.53
2018-11-07T19:58:11.497Z,51.67
2018-11-07T20:00:44.139Z,45.43
2018-11-07T20:03:17.475Z,37.87
2018-11-07T20:05:50.081Z,41.67
2018-11-07T20:08:23.119Z,43.93
2018-11-07T20:10:55.934Z,41.03
2018-11-07T20:13:28.615Z,51.27
2018-11-07T20:16:01.319Z,50.00
2018-11-07T20:18:34.040Z,48.87
2018-11-07T20:21:07.344Z,54.67
2018-11-07T20:23:40.709Z,58.53
2018-11-07T20:26:13.554Z,56.30
2018-11-07T20:28:46.466Z,53.13
2018-11-07T20:31:19.500Z,49.90
2018-11-07T20:33:52.571Z,51.27
2018-11-07T20:36:25.500Z,45.70
2018-11-07T20:38:58.380Z,48.13
2018-11-07T20:41:31.415Z,41.73
2018-11-07T20:44:04.228Z,49.33
2018-11-07T20:46:36.869Z,49.57
2018-11-07T20:49:09.785Z,46.40
2018-11-07T20:51:42.831Z,55.87
2018-11-07T20:54:15.769Z,50.67
2018-11-07T20:56:48.517Z,51.47
2018-11-07T20:59:23.027Z,46.13
2018-11-07T21:01:56.781Z,47.13
2018-11-07T21:04:30.732Z,47.70
2018-11-07T21:07:03.858Z,52.70
2018-11-07T21:09:42.744Z,58.93
2018-11-07T21:12:14.608Z,55.43
2018-11-07T21:14:46.306Z,49.17
2018-11-07T21:17:18.143Z,52.70
2018-11-07T21:19:49.977Z,52.50
2018-11-07T21:22:21.745Z,54.03
2018-11-07T21:24:52.866Z,47.07
2018-11-07T21:27:24.370Z,49.00
2018-11-07T21:29:54.804Z,48.60
2018-11-07T21:32:26.321Z,51.23
2018-11-07T21:34:58.362Z,54.37
2018-11-07T21:37:29.555Z,53.07
2018-11-07T21:40:01.475Z,52.73
2018-11-07T21:42:32.832Z,53.77
2018-11-07T21:45:04.393Z,63.43
2018-11-07T21:47:35.690Z,54.87
2018-11-07T21:50:08.380Z,69.20
2018-11-07T21:52:40.212Z,56.30
2018-11-07T21:55:10.533Z,55.17
2018-11-07T21:57:41.469Z,60.63
2018-11-07T22:00:18.363Z,59.63
2018-11-07T22:02:49.199Z,63.97
2018-11-07T22:05:19.629Z,64.77
2018-11-07T22:07:49.871Z,61.10
2018-11-07T22:10:20.226Z,63.67
2018-11-07T22:12:50.438Z,59.77
2018-11-07T22:15:20.856Z,55.17
2018-11-07T22:17:51.277Z,60.57
2018-11-07T22:20:22.771Z,53.47
2018-11-07T22:22:53.594Z,57.70
2018-11-07T22:25:24.083Z,58.60
2018-11-07T22:27:54.550Z,53.07
2018-11-07T22:30:24.854Z,54.57
2018-11-07T22:32:55.297Z,55.80
2018-11-07T22:35:25.534Z,60.70
2018-11-07T22:37:55.719Z,51.47
2018-11-07T22:40:26.385Z,58.27
2018-11-07T22:42:56.723Z,51.87
2018-11-07T22:45:27.064Z,49.90
2018-11-07T22:47:57.453Z,52.40
2018-11-07T22:50:27.834Z,51.70
2018-11-07T22:52:58.164Z,51.30
2018-11-07T22:55:28.491Z,45.33
2018-11-07T22:57:58.904Z,53.83
2018-11-07T23:00:34.918Z,45.77
2018-11-07T23:03:06.227Z,45.40
